createdAt,value
2018-05-01T00:01:27.842Z,0.30
2018-05-01T00:03:55.359Z,0.10
2018-05-01T00:06:22.849Z,0.10
2018-05-01T00:08:50.368Z,0.10
2018-05-01T00:11:20.970Z,0.20
2018-05-01T00:13:48.504Z,0.10
2018-05-01T00:16:15.981Z,0.20
2018-05-01T00:18:43.553Z,0.20
2018-05-01T00:21:11.093Z,0.20
2018-05-01T00:23:38.598Z,0.20
2018-05-01T00:26:06.084Z,0.10
2018-05-01T00:28:33.590Z,0.10
2018-05-01T00:31:01.096Z,0.20
2018-05-01T00:33:28.570Z,0.37
2018-05-01T00:35:56.108Z,0.30
2018-05-01T00:38:23.628Z,0.40
2018-05-01T00:40:51.128Z,0.10
2018-05-01T00:43:18.674Z,0.30
2018-05-01T00:45:46.166Z,0.23
2018-05-01T00:48:14.491Z,0.20
2018-05-01T00:50:42.008Z,0.10
2018-05-01T00:53:09.489Z,0.10
2018-05-01T00:55:36.968Z,0.20
2018-05-01T00:58:04.435Z,0.10
2018-05-01T01:00:31.926Z,0.20
2018-05-01T01:03:00.166Z,0.30
2018-05-01T01:05:28.511Z,0.30
2018-05-01T01:07:56.703Z,0.30
2018-05-01T01:10:24.205Z,0.20
2018-05-01T01:12:52.452Z,0.20
2018-05-01T01:15:19.977Z,0.30
2018-05-01T01:17:47.455Z,0.10
2018-05-01T01:20:14.982Z,0.20
2018-05-01T01:22:42.451Z,0.20
2018-05-01T01:25:09.970Z,0.30
2018-05-01T01:27:37.475Z,0.20
2018-05-01T01:30:05.061Z,0.20
2018-05-01T01:32:32.555Z,0.30
2018-05-01T01:35:00.340Z,0.20
2018-05-01T01:37:28.085Z,0.20
2018-05-01T01:39:55.105Z,0.33
2018-05-01T01:42:22.130Z,0.20
2018-05-01T01:44:50.020Z,0.30
2018-05-01T01:47:17.015Z,0.30
2018-05-01T01:49:44.016Z,0.37
2018-05-01T01:52:11.001Z,0.20
2018-05-01T01:54:38.016Z,0.23
2018-05-01T01:57:04.989Z,0.30
2018-05-01T01:59:31.992Z,0.50
2018-05-01T02:01:59.754Z,0.40
2018-05-01T02:04:26.748Z,0.50
2018-05-01T02:06:53.745Z,0.40
2018-05-01T02:09:20.751Z,0.30
2018-05-01T02:11:48.492Z,0.50
2018-05-01T02:14:15.500Z,0.40
2018-05-01T02:16:42.482Z,0.20
2018-05-01T02:19:09.513Z,0.30
2018-05-01T02:21:36.539Z,0.20
2018-05-01T02:24:03.520Z,0.20
2018-05-01T02:26:30.516Z,0.20
2018-05-01T02:28:57.500Z,0.20
2018-05-01T02:31:24.529Z,0.20
2018-05-01T02:33:51.632Z,0.30
2018-05-01T02:36:18.553Z,0.37
2018-05-01T02:38:45.551Z,0.20
2018-05-01T02:41:12.571Z,0.30
2018-05-01T02:43:39.582Z,0.30
2018-05-01T02:46:06.600Z,0.30
2018-05-01T02:48:33.595Z,0.20
2018-05-01T02:51:00.595Z,0.30
2018-05-01T02:53:27.572Z,0.20
2018-05-01T02:55:54.616Z,0.30
2018-05-01T02:58:21.637Z,0.20
2018-05-01T03:00:48.654Z,0.20
2018-05-01T03:03:15.631Z,0.23
2018-05-01T03:05:42.636Z,0.20
2018-05-01T03:08:10.444Z,0.40
2018-05-01T03:10:37.453Z,0.30
2018-05-01T03:13:04.449Z,0.20
2018-05-01T03:15:31.460Z,0.20
2018-05-01T03:17:58.447Z,0.20
2018-05-01T03:20:26.216Z,0.43
2018-05-01T03:22:53.210Z,0.20
2018-05-01T03:25:20.268Z,0.20
2018-05-01T03:27:47.223Z,0.40
2018-05-01T03:30:14.229Z,0.40
2018-05-01T03:32:41.205Z,0.30
2018-05-01T03:35:08.204Z,0.40
2018-05-01T03:37:35.201Z,0.40
2018-05-01T03:40:02.198Z,0.40
2018-05-01T03:42:29.948Z,0.50
2018-05-01T03:44:56.960Z,0.40
2018-05-01T03:47:23.975Z,0.30
2018-05-01T03:49:51.055Z,0.30
2018-05-01T03:52:18.821Z,0.30
2018-05-01T03:54:46.572Z,0.30
2018-05-01T03:57:13.629Z,0.43
2018-05-01T03:59:40.612Z,0.40
2018-05-01T04:02:07.646Z,0.27
2018-05-01T04:04:34.651Z,0.30
2018-05-01T04:07:01.653Z,0.40
2018-05-01T04:09:29.480Z,0.30
2018-05-01T04:11:56.512Z,0.30
2018-05-01T04:14:23.504Z,0.30
2018-05-01T04:16:51.307Z,0.27
2018-05-01T04:19:18.320Z,0.30
2018-05-01T04:21:45.327Z,0.30
2018-05-01T04:24:12.323Z,0.30
2018-05-01T04:26:39.320Z,0.30
2018-05-01T04:29:07.088Z,0.43
2018-05-01T04:31:34.087Z,0.30
2018-05-01T04:34:01.156Z,0.40
2018-05-01T04:36:28.165Z,0.47
2018-05-01T04:38:55.177Z,0.30
2018-05-01T04:41:22.228Z,0.50
2018-05-01T04:43:49.208Z,0.40
2018-05-01T04:46:16.281Z,0.40
2018-05-01T04:48:43.297Z,0.30
2018-05-01T04:51:11.081Z,0.30
2018-05-01T04:53:38.105Z,0.30
2018-05-01T04:56:05.160Z,0.20
2018-05-01T04:58:32.149Z,0.30
2018-05-01T05:00:59.937Z,0.30
2018-05-01T05:03:26.909Z,0.40
2018-05-01T05:05:53.920Z,0.30
2018-05-01T05:08:21.175Z,0.53
2018-05-01T05:10:48.213Z,0.30
2018-05-01T05:13:15.261Z,0.40
2018-05-01T05:15:42.305Z,0.33
2018-05-01T05:18:09.292Z,0.30
2018-05-01T05:20:36.311Z,0.30
2018-05-01T05:23:04.064Z,0.30
2018-05-01T05:25:31.051Z,0.30
2018-05-01T05:27:58.073Z,0.40
2018-05-01T05:30:25.100Z,0.40
2018-05-01T05:32:52.087Z,0.30
2018-05-01T05:35:19.083Z,0.40
2018-05-01T05:37:46.094Z,0.33
2018-05-01T05:40:13.157Z,0.30
2018-05-01T05:42:40.230Z,0.40
2018-05-01T05:45:07.181Z,0.27
2018-05-01T05:47:34.264Z,0.20
2018-05-01T05:50:01.343Z,0.40
2018-05-01T05:52:29.226Z,0.40
2018-05-01T05:54:56.292Z,0.50
2018-05-01T05:57:24.118Z,0.40
2018-05-01T05:59:51.224Z,0.30
2018-05-01T06:02:19.116Z,0.27
2018-05-01T06:04:47.041Z,0.30
2018-05-01T06:07:14.033Z,0.33
2018-05-01T06:09:41.045Z,0.40
2018-05-01T06:12:08.105Z,0.30
2018-05-01T06:14:35.104Z,0.40
2018-05-01T06:17:02.108Z,0.40
2018-05-01T06:19:29.100Z,0.40
2018-05-01T06:21:56.130Z,0.40
2018-05-01T06:24:23.107Z,0.60
2018-05-01T06:26:50.200Z,0.70
2018-05-01T06:29:17.199Z,0.60
2018-05-01T06:31:44.970Z,0.40
2018-05-01T06:34:14.311Z,0.40
2018-05-01T06:36:41.353Z,0.57
2018-05-01T06:39:08.397Z,0.63
2018-05-01T06:41:36.186Z,0.70
2018-05-01T06:44:03.972Z,0.50
2018-05-01T06:46:30.988Z,0.50
2018-05-01T06:48:58.501Z,0.50
2018-05-01T06:51:25.543Z,0.60
2018-05-01T06:53:52.570Z,0.57
2018-05-01T06:56:19.589Z,0.60
2018-05-01T06:58:46.608Z,0.40
2018-05-01T07:01:13.616Z,0.50
2018-05-01T07:03:40.620Z,0.50
2018-05-01T07:06:07.739Z,0.77
2018-05-01T07:08:34.744Z,0.60
2018-05-01T07:11:01.773Z,0.60
2018-05-01T07:13:28.772Z,0.50
2018-05-01T07:15:55.825Z,0.67
2018-05-01T07:18:22.800Z,0.70
2018-05-01T07:20:49.803Z,0.80
2018-05-01T07:23:16.861Z,0.60
2018-05-01T07:25:44.593Z,0.60
2018-05-01T07:28:11.619Z,0.57
2018-05-01T07:30:38.643Z,0.90
2018-05-01T07:33:05.652Z,0.57
2018-05-01T07:35:32.816Z,0.67
2018-05-01T07:38:00.658Z,0.70
2018-05-01T07:40:27.634Z,0.70
2018-05-01T07:42:54.849Z,0.77
2018-05-01T07:45:21.851Z,0.70
2018-05-01T07:47:48.902Z,0.60
2018-05-01T07:50:15.894Z,1.00
2018-05-01T07:52:42.942Z,0.70
2018-05-01T07:55:09.948Z,0.80
2018-05-01T07:57:36.955Z,0.60
2018-05-01T08:00:03.936Z,0.77
2018-05-01T08:02:30.961Z,0.73
2018-05-01T08:04:57.944Z,0.50
2018-05-01T08:07:24.954Z,0.80
2018-05-01T08:09:52.721Z,0.80
2018-05-01T08:12:19.779Z,0.80
2018-05-01T08:14:47.556Z,0.63
2018-05-01T08:17:14.585Z,0.60
2018-05-01T08:19:41.586Z,0.60
2018-05-01T08:22:08.608Z,0.63
2018-05-01T08:24:35.596Z,0.60
2018-05-01T08:27:02.599Z,0.60
2018-05-01T08:29:29.589Z,0.80
2018-05-01T08:31:56.580Z,0.80
2018-05-01T08:34:23.588Z,0.57
2018-05-01T08:36:50.612Z,0.70
2018-05-01T08:39:18.370Z,0.87
2018-05-01T08:41:45.380Z,0.50
2018-05-01T08:44:12.396Z,0.70
2018-05-01T08:46:40.392Z,0.60
2018-05-01T08:49:08.140Z,0.60
2018-05-01T08:51:35.147Z,0.57
2018-05-01T08:54:02.132Z,0.60
2018-05-01T08:56:29.573Z,0.70
2018-05-01T08:58:57.324Z,0.60
2018-05-01T09:01:24.356Z,0.70
2018-05-01T09:03:52.164Z,0.53
2018-05-01T09:06:19.223Z,0.70
2018-05-01T09:08:47.034Z,0.50
2018-05-01T09:11:14.037Z,0.63
2018-05-01T09:13:41.138Z,0.60
2018-05-01T09:16:08.893Z,0.53
2018-05-01T09:18:35.890Z,0.60
2018-05-01T09:21:02.918Z,0.60
2018-05-01T09:23:29.935Z,0.80
2018-05-01T09:25:56.933Z,0.60
2018-05-01T09:28:24.908Z,0.60
2018-05-01T09:30:51.944Z,0.50
2018-05-01T09:33:18.995Z,0.90
2018-05-01T09:35:45.971Z,0.70
2018-05-01T09:38:12.978Z,0.60
2018-05-01T09:40:40.737Z,0.60
2018-05-01T09:43:07.814Z,0.77
2018-05-01T09:45:35.564Z,0.70
2018-05-01T09:48:02.577Z,0.40
2018-05-01T09:50:29.567Z,0.30
2018-05-01T09:52:57.086Z,0.40
2018-05-01T09:55:25.314Z,0.50
2018-05-01T09:57:52.845Z,0.60
2018-05-01T10:00:23.949Z,0.50
2018-05-01T10:02:51.433Z,0.60
2018-05-01T10:05:18.944Z,0.60
2018-05-01T10:07:47.214Z,0.50
2018-05-01T10:10:16.202Z,0.30
2018-05-01T10:12:43.741Z,0.43
2018-05-01T10:15:11.215Z,0.50
2018-05-01T10:17:38.704Z,0.40
2018-05-01T10:20:06.203Z,0.30
2018-05-01T10:22:33.713Z,0.30
2018-05-01T10:25:01.182Z,0.40
2018-05-01T10:27:29.481Z,0.53
2018-05-01T10:29:56.980Z,0.33
2018-05-01T10:32:24.564Z,0.47
2018-05-01T10:34:52.854Z,0.50
2018-05-01T10:37:20.367Z,0.70
2018-05-01T10:39:48.633Z,0.40
2018-05-01T10:42:16.128Z,0.60
2018-05-01T10:44:44.360Z,0.40
2018-05-01T10:47:11.855Z,0.40
2018-05-01T10:49:39.319Z,0.40
2018-05-01T10:52:06.812Z,0.20
2018-05-01T10:54:34.321Z,0.50
2018-05-01T10:57:02.541Z,0.73
2018-05-01T10:59:30.020Z,0.50
2018-05-01T11:01:57.497Z,0.57
2018-05-01T11:04:25.047Z,0.40
2018-05-01T11:06:52.543Z,0.53
2018-05-01T11:09:20.246Z,0.93
2018-05-01T11:11:47.746Z,0.60
2018-05-01T11:14:15.242Z,0.50
2018-05-01T11:16:42.718Z,0.70
2018-05-01T11:19:11.894Z,0.40
2018-05-01T11:21:39.364Z,0.40
2018-05-01T11:24:06.849Z,0.50
2018-05-01T11:26:34.340Z,1.00
2018-05-01T11:29:01.836Z,0.40
2018-05-01T11:31:30.092Z,0.70
2018-05-01T11:33:57.621Z,1.00
2018-05-01T11:36:25.860Z,0.57
2018-05-01T11:38:53.532Z,0.63
2018-05-01T11:41:21.070Z,0.57
2018-05-01T11:43:48.565Z,0.80
2018-05-01T11:46:16.032Z,0.53
2018-05-01T11:48:43.516Z,1.00
2018-05-01T11:51:10.984Z,0.80
2018-05-01T11:53:38.538Z,0.70
2018-05-01T11:56:06.737Z,0.60
2018-05-01T11:58:34.222Z,0.70
2018-05-01T12:01:01.684Z,0.70
2018-05-01T12:03:29.185Z,0.70
2018-05-01T12:05:56.659Z,0.70
2018-05-01T12:08:24.180Z,0.60
2018-05-01T12:10:51.660Z,0.60
2018-05-01T12:13:19.158Z,0.70
2018-05-01T12:15:46.698Z,0.70
2018-05-01T12:18:14.189Z,0.80
2018-05-01T12:20:41.670Z,0.57
2018-05-01T12:23:09.153Z,0.80
2018-05-01T12:25:36.622Z,0.70
2018-05-01T12:28:05.081Z,0.70
2018-05-01T12:30:32.580Z,0.67
2018-05-01T12:33:00.095Z,0.77
2018-05-01T12:35:28.441Z,0.80
2018-05-01T12:37:57.553Z,0.77
2018-05-01T12:40:29.116Z,0.90
2018-05-01T12:43:02.790Z,0.73
2018-05-01T12:45:30.384Z,0.63
2018-05-01T12:47:58.629Z,0.90
2018-05-01T12:50:26.348Z,1.10
2018-05-01T12:52:53.857Z,0.70
2018-05-01T12:55:21.337Z,0.60
2018-05-01T12:57:50.950Z,0.80
2018-05-01T13:00:18.532Z,0.90
2018-05-01T13:02:46.013Z,0.93
2018-05-01T13:05:14.321Z,0.87
2018-05-01T13:07:41.845Z,0.83
2018-05-01T13:10:09.334Z,0.70
2018-05-01T13:12:39.139Z,0.97
2018-05-01T13:18:10.236Z,0.97
2018-05-01T13:20:43.510Z,0.63
2018-05-01T13:23:11.138Z,0.70
2018-05-01T13:25:40.871Z,0.80
2018-05-01T13:28:09.133Z,0.93
2018-05-01T13:30:36.617Z,0.97
2018-05-01T13:33:07.735Z,1.00
2018-05-01T13:35:36.080Z,0.80
2018-05-01T13:38:05.984Z,1.00
2018-05-01T13:40:33.476Z,0.80
2018-05-01T13:43:09.927Z,0.50
2018-05-01T13:45:37.431Z,1.10
2018-05-01T13:48:04.921Z,1.10
2018-05-01T13:50:33.183Z,0.90
2018-05-01T13:53:00.643Z,1.07
2018-05-01T13:55:28.372Z,1.40
2018-05-01T13:57:55.860Z,1.20
2018-05-01T14:00:34.165Z,0.93
2018-05-01T14:03:01.962Z,1.00
2018-05-01T14:05:32.957Z,0.70
2018-05-01T14:08:06.674Z,1.10
2018-05-01T14:10:37.105Z,4.77
2018-05-01T14:13:07.254Z,1.73
2018-05-01T14:15:34.806Z,1.27
2018-05-01T14:18:14.532Z,1.10
2018-05-01T14:20:42.018Z,1.20
2018-05-01T14:23:09.505Z,0.80
2018-05-01T14:25:39.371Z,0.80
2018-05-01T14:28:10.011Z,0.67
2018-05-01T14:30:45.442Z,0.77
2018-05-01T14:33:16.896Z,0.70
2018-05-01T14:35:47.552Z,0.80
2018-05-01T14:38:15.113Z,0.70
2018-05-01T14:40:48.618Z,0.80
2018-05-01T14:43:16.815Z,0.93
2018-05-01T14:45:54.884Z,1.10
2018-05-01T14:48:24.367Z,1.07
2018-05-01T14:50:54.278Z,1.03
2018-05-01T14:53:22.093Z,0.90
2018-05-01T14:55:50.617Z,1.37
2018-05-01T14:58:19.155Z,1.30
2018-05-01T15:00:47.549Z,1.17
2018-05-01T15:03:18.600Z,0.90
2018-05-01T15:05:46.108Z,1.00
2018-05-01T15:08:27.870Z,0.70
2018-05-01T15:10:55.580Z,0.70
2018-05-01T15:13:23.203Z,1.00
2018-05-01T15:15:50.710Z,0.93
2018-05-01T15:18:18.235Z,1.20
2018-05-01T15:20:52.202Z,0.90
2018-05-01T15:23:22.798Z,0.90
2018-05-01T15:25:54.315Z,0.67
2018-05-01T15:28:25.533Z,0.60
2018-05-01T15:30:53.653Z,1.00
2018-05-01T15:33:24.288Z,1.07
2018-05-01T15:35:56.702Z,1.20
2018-05-01T15:38:28.997Z,1.17
2018-05-01T15:40:56.529Z,1.00
2018-05-01T15:43:24.805Z,1.00
2018-05-01T15:45:53.550Z,1.00
2018-05-01T15:48:21.061Z,0.70
2018-05-01T15:50:48.559Z,0.50
2018-05-01T15:53:18.277Z,0.50
2018-05-01T15:55:46.536Z,0.80
2018-05-01T15:58:14.042Z,0.60
2018-05-01T16:00:48.007Z,0.90
2018-05-01T16:03:15.595Z,1.03
2018-05-01T16:05:43.109Z,0.57
2018-05-01T16:08:17.192Z,0.80
2018-05-01T16:10:46.224Z,0.90
2018-05-01T16:13:13.695Z,1.07
2018-05-01T16:15:44.514Z,1.00
2018-05-01T16:18:12.036Z,0.60
2018-05-01T16:20:40.313Z,0.83
2018-05-01T16:23:11.228Z,0.50
2018-05-01T16:25:39.544Z,0.60
2018-05-01T16:28:07.029Z,0.60
2018-05-01T16:30:34.584Z,0.70
2018-05-01T16:33:02.089Z,0.60
2018-05-01T16:35:29.556Z,0.80
2018-05-01T16:37:57.031Z,0.60
2018-05-01T16:40:24.595Z,0.80
2018-05-01T16:42:52.787Z,0.80
2018-05-01T16:45:21.077Z,1.30
2018-05-01T16:47:49.348Z,0.70
2018-05-01T16:50:16.837Z,0.87
2018-05-01T16:52:44.318Z,1.37
2018-05-01T16:55:12.792Z,1.40
2018-05-01T16:57:40.302Z,2.03
2018-05-01T17:00:07.794Z,1.67
2018-05-01T17:02:35.271Z,1.50
2018-05-01T17:05:02.783Z,1.13
2018-05-01T17:07:30.267Z,0.90
2018-05-01T17:09:58.597Z,0.90
2018-05-01T17:12:26.087Z,0.93
2018-05-01T17:14:53.630Z,0.90
2018-05-01T17:17:21.703Z,1.10
2018-05-01T17:19:49.189Z,1.03
2018-05-01T17:22:16.772Z,1.00
2018-05-01T17:24:44.217Z,1.00
2018-05-01T17:27:11.695Z,0.70
2018-05-01T17:29:39.374Z,0.80
2018-05-01T17:32:06.901Z,0.60
2018-05-01T17:34:34.403Z,0.80
2018-05-01T17:37:02.636Z,0.60
2018-05-01T17:39:30.138Z,1.00
2018-05-01T17:41:57.625Z,0.50
2018-05-01T17:44:25.859Z,0.90
2018-05-01T17:46:55.379Z,0.67
2018-05-01T17:49:22.889Z,0.60
2018-05-01T17:51:50.405Z,0.90
2018-05-01T17:54:17.890Z,0.80
2018-05-01T17:56:45.372Z,1.07
2018-05-01T17:59:12.858Z,0.67
2018-05-01T18:01:40.340Z,0.60
2018-05-01T18:04:07.857Z,0.60
2018-05-01T18:06:35.393Z,0.60
2018-05-01T18:09:03.178Z,0.50
2018-05-01T18:11:31.529Z,0.70
2018-05-01T18:13:59.189Z,0.60
2018-05-01T18:16:27.032Z,0.83
2018-05-01T18:18:54.617Z,0.83
2018-05-01T18:21:22.284Z,0.70
2018-05-01T18:23:49.839Z,0.60
2018-05-01T18:26:18.174Z,0.70
2018-05-01T18:28:45.656Z,0.50
2018-05-01T18:31:13.173Z,0.43
2018-05-01T18:33:40.643Z,0.50
2018-05-01T18:36:08.213Z,0.70
2018-05-01T18:38:36.462Z,0.60
2018-05-01T18:41:03.950Z,0.77
2018-05-01T18:43:31.421Z,0.90
2018-05-01T18:45:59.234Z,0.80
2018-05-01T18:48:27.796Z,0.77
2018-05-01T18:50:55.396Z,0.90
2018-05-01T18:53:22.861Z,0.60
2018-05-01T18:55:50.422Z,0.60
2018-05-01T18:58:18.035Z,0.73
2018-05-01T19:00:45.572Z,0.70
2018-05-01T19:03:13.051Z,1.03
2018-05-01T19:05:41.324Z,1.30
2018-05-01T19:08:08.798Z,4.03
2018-05-01T19:10:36.348Z,3.20
2018-05-01T19:13:03.843Z,3.17
2018-05-01T19:15:31.394Z,2.33
2018-05-01T19:17:58.993Z,2.43
2018-05-01T19:20:26.562Z,1.67
2018-05-01T19:22:54.077Z,1.10
2018-05-01T19:25:30.456Z,1.40
2018-05-01T19:27:58.264Z,1.30
2018-05-01T19:30:25.780Z,1.30
2018-05-01T19:32:54.215Z,2.03
2018-05-01T19:35:30.963Z,1.73
2018-05-01T19:38:01.242Z,0.97
2018-05-01T19:40:35.829Z,0.80
2018-05-01T19:43:06.868Z,2.37
2018-05-01T19:45:47.407Z,3.73
2018-05-01T19:48:22.784Z,3.10
2018-05-01T19:50:57.210Z,3.53
2018-05-01T19:53:29.211Z,3.13
2018-05-01T19:55:59.343Z,2.30
2018-05-01T19:58:28.307Z,1.53
2018-05-01T20:01:02.051Z,1.43
2018-05-01T20:03:29.844Z,0.97
2018-05-01T20:06:01.972Z,1.00
2018-05-01T20:08:33.037Z,0.90
2018-05-01T20:11:02.166Z,0.90
2018-05-01T20:13:32.761Z,1.10
2018-05-01T20:16:02.013Z,1.07
2018-05-01T20:18:31.655Z,0.73
2018-05-01T20:21:01.950Z,0.80
2018-05-01T20:23:32.930Z,0.80
2018-05-01T20:26:03.754Z,0.50
2018-05-01T20:28:34.550Z,0.60
2018-05-01T20:31:05.191Z,0.90
2018-05-01T20:33:34.011Z,0.67
2018-05-01T20:36:15.167Z,0.70
2018-05-01T20:38:43.154Z,0.63
2018-05-01T20:41:14.703Z,0.70
2018-05-01T20:43:58.294Z,0.70
2018-05-01T20:49:02.344Z,0.60
2018-05-01T20:51:30.558Z,1.00
2018-05-01T20:54:02.445Z,0.73
2018-05-01T20:56:30.714Z,0.67
2018-05-01T20:59:01.209Z,0.80
2018-05-01T21:01:30.140Z,0.53
2018-05-01T21:04:00.378Z,0.70
2018-05-01T21:06:30.986Z,0.80
2018-05-01T21:08:59.086Z,0.60
2018-05-01T21:11:28.525Z,0.60
2018-05-01T21:13:59.651Z,0.63
2018-05-01T21:16:30.905Z,1.07
2018-05-01T21:19:01.156Z,0.80
2018-05-01T21:21:30.276Z,0.63
2018-05-01T21:24:00.906Z,0.90
2018-05-01T21:26:30.845Z,0.80
2018-05-01T21:29:00.832Z,1.00
2018-05-01T21:31:29.197Z,0.77
2018-05-01T21:33:57.129Z,0.70
2018-05-01T21:36:29.167Z,0.83
2018-05-01T21:39:04.342Z,0.90
2018-05-01T21:41:32.092Z,0.80
2018-05-01T21:43:59.669Z,0.67
2018-05-01T21:46:27.185Z,0.90
2018-05-01T21:48:54.807Z,0.80
2018-05-01T21:51:22.315Z,0.77
2018-05-01T21:53:49.873Z,0.60
2018-05-01T21:56:18.149Z,0.80
2018-05-01T21:58:45.651Z,0.70
2018-05-01T22:01:13.145Z,0.80
2018-05-01T22:03:40.620Z,0.70
2018-05-01T22:06:08.135Z,1.00
2018-05-01T22:08:35.653Z,0.70
2018-05-01T22:11:03.239Z,0.47
2018-05-01T22:13:30.744Z,0.50
2018-05-01T22:15:58.679Z,0.63
2018-05-01T22:18:26.223Z,0.57
2018-05-01T22:20:53.783Z,0.87
2018-05-01T22:23:21.289Z,0.77
2018-05-01T22:25:48.760Z,0.70
2018-05-01T22:28:17.920Z,0.70
2018-05-01T22:30:50.343Z,1.00
2018-05-01T22:33:21.878Z,0.70
2018-05-01T22:35:52.413Z,0.80
2018-05-01T22:38:19.993Z,0.60
2018-05-01T22:40:47.740Z,0.70
2018-05-01T22:43:15.228Z,0.77
2018-05-01T22:45:44.517Z,0.63
2018-05-01T22:48:12.055Z,1.00
2018-05-01T22:50:49.178Z,0.80
2018-05-01T22:53:17.184Z,0.70
2018-05-01T22:55:44.650Z,0.83
2018-05-01T22:58:12.148Z,0.67
2018-05-01T23:00:39.668Z,0.43
2018-05-01T23:03:07.296Z,0.83
2018-05-01T23:05:34.777Z,0.50
2018-05-01T23:08:02.301Z,0.83
2018-05-01T23:10:29.849Z,1.20
2018-05-01T23:12:57.430Z,0.60
2018-05-01T23:15:24.924Z,0.70
2018-05-01T23:17:52.411Z,0.93
2018-05-01T23:20:19.923Z,0.70
2018-05-01T23:22:47.429Z,0.80
2018-05-01T23:25:14.922Z,0.60
2018-05-01T23:27:42.411Z,0.60
2018-05-01T23:30:09.906Z,0.63
2018-05-01T23:32:38.172Z,0.60
2018-05-01T23:35:05.772Z,0.80
2018-05-01T23:37:34.044Z,0.70
2018-05-01T23:40:02.420Z,0.60
2018-05-01T23:42:29.898Z,0.70
2018-05-01T23:44:57.465Z,0.60
2018-05-01T23:47:24.955Z,0.60
2018-05-01T23:49:53.224Z,0.63
2018-05-01T23:52:20.712Z,0.60
2018-05-01T23:54:48.994Z,1.20
2018-05-01T23:57:16.485Z,0.60
2018-05-01T23:59:44.753Z,0.70
